Air Navigation Services of Czech Republic
Airport: LKLN Updated:  22.11.2017 10:08:05  UTC
 METAR LKLN 22.11. 10:00 ...
METAR LKLN 221000Z AUTO 23009KT 180V310 9999 OVC020 09/05 Q1013=